sensor_id;sensor_type;location;lat;lon;timestamp;temperature;humidity
40808;DHT22;26523;52.504;13.498;2022-11-15T00:01:51;4.00;99.90
40808;DHT22;26523;52.504;13.498;2022-11-15T00:04:17;4.00;99.90
40808;DHT22;26523;52.504;13.498;2022-11-15T00:06:42;4.00;99.90
40808;DHT22;26523;52.504;13.498;2022-11-15T00:09:08;3.90;99.90
40808;DHT22;26523;52.504;13.498;2022-11-15T00:11:33;3.90;99.90
40808;DHT22;26523;52.504;13.498;2022-11-15T00:13:59;4.00;99.90
40808;DHT22;26523;52.504;13.498;2022-11-15T00:16:27;4.00;99.90
40808;DHT22;26523;52.504;13.498;2022-11-15T00:18:53;4.00;99.90
40808;DHT22;26523;52.504;13.498;2022-11-15T00:21:19;3.90;99.90
40808;DHT22;26523;52.504;13.498;2022-11-15T00:23:44;3.90;99.90
40808;DHT22;26523;52.504;13.498;2022-11-15T00:26:14;3.90;99.90
40808;DHT22;26523;52.504;13.498;2022-11-15T00:28:41;3.90;99.90
40808;DHT22;26523;52.504;13.498;2022-11-15T00:31:11;3.80;99.90
40808;DHT22;26523;52.504;13.498;2022-11-15T00:33:37;3.80;99.90
40808;DHT22;26523;52.504;13.498;2022-11-15T00:36:04;3.80;99.90
40808;DHT22;26523;52.504;13.498;2022-11-15T00:38:31;3.80;99.90
40808;DHT22;26523;52.504;13.498;2022-11-15T00:40:58;3.80;99.90
40808;DHT22;26523;52.504;13.498;2022-11-15T00:43:23;3.80;99.90
40808;DHT22;26523;52.504;13.498;2022-11-15T00:45:49;3.80;99.90
40808;DHT22;26523;52.504;13.498;2022-11-15T00:48:14;3.80;99.90
40808;DHT22;26523;52.504;13.498;2022-11-15T00:50:40;3.80;99.90
40808;DHT22;26523;52.504;13.498;2022-11-15T00:53:06;3.80;99.90
40808;DHT22;26523;52.504;13.498;2022-11-15T00:55:31;3.80;99.90
40808;DHT22;26523;52.504;13.498;2022-11-15T00:57:57;3.80;99.90
40808;DHT22;26523;52.504;13.498;2022-11-15T01:00:23;3.70;99.90
40808;DHT22;26523;52.504;13.498;2022-11-15T01:02:48;3.80;99.90
40808;DHT22;26523;52.504;13.498;2022-11-15T01:05:14;3.80;99.90
40808;DHT22;26523;52.504;13.498;2022-11-15T01:07:40;3.80;99.90
40808;DHT22;26523;52.504;13.498;2022-11-15T01:10:06;3.80;99.90
40808;DHT22;26523;52.504;13.498;2022-11-15T01:12:32;3.70;99.90
40808;DHT22;26523;52.504;13.498;2022-11-15T01:14:57;3.70;99.90
40808;DHT22;26523;52.504;13.498;2022-11-15T01:17:23;3.60;99.90
40808;DHT22;26523;52.504;13.498;2022-11-15T01:19:49;3.60;99.90
40808;DHT22;26523;52.504;13.498;2022-11-15T01:22:15;3.50;99.90
40808;DHT22;26523;52.504;13.498;2022-11-15T01:24:41;3.60;99.90
40808;DHT22;26523;52.504;13.498;2022-11-15T01:27:06;3.70;99.90
40808;DHT22;26523;52.504;13.498;2022-11-15T01:29:32;3.60;99.90
40808;DHT22;26523;52.504;13.498;2022-11-15T01:31:58;3.60;99.90
40808;DHT22;26523;52.504;13.498;2022-11-15T01:34:23;3.60;99.90
40808;DHT22;26523;52.504;13.498;2022-11-15T01:36:49;3.50;99.90
40808;DHT22;26523;52.504;13.498;2022-11-15T01:39:15;3.40;99.90
40808;DHT22;26523;52.504;13.498;2022-11-15T01:41:41;3.40;99.90
40808;DHT22;26523;52.504;13.498;2022-11-15T01:47:19;3.40;99.90
40808;DHT22;26523;52.504;13.498;2022-11-15T01:49:59;3.40;99.90
40808;DHT22;26523;52.504;13.498;2022-11-15T01:52:28;3.30;99.90
40808;DHT22;26523;52.504;13.498;2022-11-15T01:57:24;3.40;99.90
40808;DHT22;26523;52.504;13.498;2022-11-15T01:59:50;3.40;99.90
40808;DHT22;26523;52.504;13.498;2022-11-15T02:02:16;3.40;99.90
40808;DHT22;26523;52.504;13.498;2022-11-15T02:04:46;3.40;99.90
40808;DHT22;26523;52.504;13.498;2022-11-15T02:07:16;3.30;99.90
40808;DHT22;26523;52.504;13.498;2022-11-15T02:09:43;3.30;99.90
40808;DHT22;26523;52.504;13.498;2022-11-15T02:12:10;3.30;99.90
40808;DHT22;26523;52.504;13.498;2022-11-15T02:14:39;3.30;99.90
40808;DHT22;26523;52.504;13.498;2022-11-15T02:17:26;3.20;99.90
40808;DHT22;26523;52.504;13.498;2022-11-15T02:37:16;3.10;99.90
40808;DHT22;26523;52.504;13.498;2022-11-15T02:42:33;3.20;99.90
40808;DHT22;26523;52.504;13.498;2022-11-15T02:45:30;3.10;99.90
40808;DHT22;26523;52.504;13.498;2022-11-15T02:47:59;3.10;99.90
40808;DHT22;26523;52.504;13.498;2022-11-15T02:50:29;3.00;99.90
40808;DHT22;26523;52.504;13.498;2022-11-15T02:52:55;3.00;99.90
40808;DHT22;26523;52.504;13.498;2022-11-15T02:58:25;3.00;99.90
40808;DHT22;26523;52.504;13.498;2022-11-15T03:06:52;2.90;99.90
40808;DHT22;26523;52.504;13.498;2022-11-15T03:09:32;2.90;99.90
40808;DHT22;26523;52.504;13.498;2022-11-15T03:15:03;2.90;99.90
40808;DHT22;26523;52.504;13.498;2022-11-15T03:17:35;2.80;99.90
40808;DHT22;26523;52.504;13.498;2022-11-15T03:20:06;2.80;99.90
40808;DHT22;26523;52.504;13.498;2022-11-15T03:22:36;2.80;99.90
40808;DHT22;26523;52.504;13.498;2022-11-15T03:25:07;2.80;99.90
40808;DHT22;26523;52.504;13.498;2022-11-15T03:27:40;2.80;99.90
40808;DHT22;26523;52.504;13.498;2022-11-15T03:30:09;2.80;99.90
40808;DHT22;26523;52.504;13.498;2022-11-15T03:33:10;2.80;99.90
40808;DHT22;26523;52.504;13.498;2022-11-15T03:35:32;2.80;99.90
40808;DHT22;26523;52.504;13.498;2022-11-15T03:41:01;2.80;99.90
40808;DHT22;26523;52.504;13.498;2022-11-15T03:46:32;2.80;99.90
40808;DHT22;26523;52.504;13.498;2022-11-15T03:49:12;2.80;99.90
40808;DHT22;26523;52.504;13.498;2022-11-15T03:51:39;2.80;99.90
40808;DHT22;26523;52.504;13.498;2022-11-15T03:54:05;2.80;99.90
40808;DHT22;26523;52.504;13.498;2022-11-15T03:56:31;2.80;99.90
40808;DHT22;26523;52.504;13.498;2022-11-15T03:58:57;2.80;99.90
40808;DHT22;26523;52.504;13.498;2022-11-15T04:01:22;2.80;99.90
40808;DHT22;26523;52.504;13.498;2022-11-15T04:03:48;2.80;99.90
40808;DHT22;26523;52.504;13.498;2022-11-15T04:06:14;2.90;99.90
40808;DHT22;26523;52.504;13.498;2022-11-15T04:08:39;2.90;99.90
40808;DHT22;26523;52.504;13.498;2022-11-15T04:11:05;2.80;99.90
40808;DHT22;26523;52.504;13.498;2022-11-15T04:13:31;2.80;99.90
40808;DHT22;26523;52.504;13.498;2022-11-15T04:15:56;2.80;99.90
40808;DHT22;26523;52.504;13.498;2022-11-15T04:18:22;2.80;99.90
40808;DHT22;26523;52.504;13.498;2022-11-15T04:20:48;2.80;99.90
40808;DHT22;26523;52.504;13.498;2022-11-15T04:23:32;2.80;99.90
40808;DHT22;26523;52.504;13.498;2022-11-15T04:26:18;2.70;99.90
40808;DHT22;26523;52.504;13.498;2022-11-15T04:28:44;2.80;99.90
40808;DHT22;26523;52.504;13.498;2022-11-15T04:31:28;2.80;99.90
40808;DHT22;26523;52.504;13.498;2022-11-15T04:33:54;2.80;99.90
40808;DHT22;26523;52.504;13.498;2022-11-15T04:36:21;2.80;99.90
40808;DHT22;26523;52.504;13.498;2022-11-15T04:39:05;2.70;99.90
40808;DHT22;26523;52.504;13.498;2022-11-15T04:41:31;2.70;99.90
40808;DHT22;26523;52.504;13.498;2022-11-15T04:43:57;2.80;99.90
40808;DHT22;26523;52.504;13.498;2022-11-15T04:46:23;2.70;99.90
40808;DHT22;26523;52.504;13.498;2022-11-15T04:48:50;2.80;99.90
40808;DHT22;26523;52.504;13.498;2022-11-15T04:51:16;2.80;99.90
40808;DHT22;26523;52.504;13.498;2022-11-15T04:53:41;2.80;99.90
40808;DHT22;26523;52.504;13.498;2022-11-15T04:56:07;2.80;99.90
40808;DHT22;26523;52.504;13.498;2022-11-15T04:58:33;2.80;99.90
40808;DHT22;26523;52.504;13.498;2022-11-15T05:01:07;2.80;99.90
40808;DHT22;26523;52.504;13.498;2022-11-15T05:03:33;2.80;99.90
40808;DHT22;26523;52.504;13.498;2022-11-15T05:06:17;2.80;99.90
40808;DHT22;26523;52.504;13.498;2022-11-15T05:08:43;2.80;99.90
40808;DHT22;26523;52.504;13.498;2022-11-15T05:11:08;2.80;99.90
40808;DHT22;26523;52.504;13.498;2022-11-15T05:13:34;2.80;99.90
40808;DHT22;26523;52.504;13.498;2022-11-15T05:15:59;2.70;99.90
40808;DHT22;26523;52.504;13.498;2022-11-15T05:18:25;2.80;99.90
40808;DHT22;26523;52.504;13.498;2022-11-15T05:20:51;2.80;99.90
40808;DHT22;26523;52.504;13.498;2022-11-15T05:23:16;2.80;99.90
40808;DHT22;26523;52.504;13.498;2022-11-15T05:25:42;2.80;99.90
40808;DHT22;26523;52.504;13.498;2022-11-15T05:28:08;2.80;99.90
40808;DHT22;26523;52.504;13.498;2022-11-15T05:30:33;2.80;99.90
40808;DHT22;26523;52.504;13.498;2022-11-15T05:32:59;2.70;99.90
40808;DHT22;26523;52.504;13.498;2022-11-15T05:35:38;2.80;99.90
40808;DHT22;26523;52.504;13.498;2022-11-15T05:38:05;2.70;99.90
40808;DHT22;26523;52.504;13.498;2022-11-15T05:40:31;2.80;99.90
40808;DHT22;26523;52.504;13.498;2022-11-15T05:42:57;2.80;99.90
40808;DHT22;26523;52.504;13.498;2022-11-15T05:45:24;2.80;99.90
40808;DHT22;26523;52.504;13.498;2022-11-15T05:47:50;2.80;99.90
40808;DHT22;26523;52.504;13.498;2022-11-15T05:50:18;2.80;99.90
40808;DHT22;26523;52.504;13.498;2022-11-15T05:52:44;2.80;99.90
40808;DHT22;26523;52.504;13.498;2022-11-15T05:55:11;2.80;99.90
40808;DHT22;26523;52.504;13.498;2022-11-15T05:57:37;2.70;99.90
40808;DHT22;26523;52.504;13.498;2022-11-15T06:00:03;2.70;99.90
40808;DHT22;26523;52.504;13.498;2022-11-15T06:02:29;2.70;99.90
40808;DHT22;26523;52.504;13.498;2022-11-15T06:04:55;2.70;99.90
40808;DHT22;26523;52.504;13.498;2022-11-15T06:07:21;2.80;99.90
40808;DHT22;26523;52.504;13.498;2022-11-15T06:09:47;2.80;99.90
40808;DHT22;26523;52.504;13.498;2022-11-15T06:12:13;2.80;99.90
40808;DHT22;26523;52.504;13.498;2022-11-15T06:14:38;2.80;99.90
40808;DHT22;26523;52.504;13.498;2022-11-15T06:17:04;2.90;99.90
40808;DHT22;26523;52.504;13.498;2022-11-15T06:19:30;2.90;99.90
40808;DHT22;26523;52.504;13.498;2022-11-15T06:21:59;2.80;99.90
40808;DHT22;26523;52.504;13.498;2022-11-15T06:24:25;2.90;99.90
40808;DHT22;26523;52.504;13.498;2022-11-15T06:26:50;2.90;99.90
40808;DHT22;26523;52.504;13.498;2022-11-15T06:29:16;2.90;99.90
40808;DHT22;26523;52.504;13.498;2022-11-15T06:31:42;3.00;99.90
40808;DHT22;26523;52.504;13.498;2022-11-15T06:34:08;3.00;99.90
40808;DHT22;26523;52.504;13.498;2022-11-15T06:36:36;3.00;99.90
40808;DHT22;26523;52.504;13.498;2022-11-15T06:39:03;3.00;99.90
40808;DHT22;26523;52.504;13.498;2022-11-15T06:41:29;3.00;99.90
40808;DHT22;26523;52.504;13.498;2022-11-15T06:43:56;3.10;99.90
40808;DHT22;26523;52.504;13.498;2022-11-15T06:46:21;3.10;99.90
40808;DHT22;26523;52.504;13.498;2022-11-15T06:48:47;3.20;99.90
40808;DHT22;26523;52.504;13.498;2022-11-15T06:51:14;3.20;99.90
40808;DHT22;26523;52.504;13.498;2022-11-15T06:53:40;3.30;99.90
40808;DHT22;26523;52.504;13.498;2022-11-15T06:56:06;3.40;99.90
40808;DHT22;26523;52.504;13.498;2022-11-15T06:58:33;3.40;99.90
40808;DHT22;26523;52.504;13.498;2022-11-15T07:01:04;3.50;99.90
40808;DHT22;26523;52.504;13.498;2022-11-15T07:03:30;3.50;99.90
40808;DHT22;26523;52.504;13.498;2022-11-15T07:05:57;3.60;99.90
40808;DHT22;26523;52.504;13.498;2022-11-15T07:08:26;3.60;99.90
40808;DHT22;26523;52.504;13.498;2022-11-15T07:10:52;3.70;99.90
40808;DHT22;26523;52.504;13.498;2022-11-15T07:13:17;3.70;99.90
40808;DHT22;26523;52.504;13.498;2022-11-15T07:15:43;3.70;99.90
40808;DHT22;26523;52.504;13.498;2022-11-15T07:18:09;3.70;99.90
40808;DHT22;26523;52.504;13.498;2022-11-15T07:20:35;3.80;99.90
40808;DHT22;26523;52.504;13.498;2022-11-15T07:23:04;3.90;99.90
40808;DHT22;26523;52.504;13.498;2022-11-15T07:25:30;3.90;99.90
40808;DHT22;26523;52.504;13.498;2022-11-15T07:27:57;4.00;99.90
40808;DHT22;26523;52.504;13.498;2022-11-15T07:30:25;4.10;99.90
40808;DHT22;26523;52.504;13.498;2022-11-15T07:32:54;4.10;99.90
40808;DHT22;26523;52.504;13.498;2022-11-15T07:35:20;4.30;99.90
40808;DHT22;26523;52.504;13.498;2022-11-15T07:38:00;4.30;99.90
40808;DHT22;26523;52.504;13.498;2022-11-15T07:40:28;4.30;99.90
40808;DHT22;26523;52.504;13.498;2022-11-15T07:43:01;4.30;99.90
40808;DHT22;26523;52.504;13.498;2022-11-15T07:45:27;4.30;99.90
40808;DHT22;26523;52.504;13.498;2022-11-15T07:47:53;4.40;99.90
40808;DHT22;26523;52.504;13.498;2022-11-15T07:50:19;4.50;99.90
40808;DHT22;26523;52.504;13.498;2022-11-15T07:52:45;4.50;99.90
40808;DHT22;26523;52.504;13.498;2022-11-15T07:55:11;4.60;99.90
40808;DHT22;26523;52.504;13.498;2022-11-15T07:57:37;4.60;99.90
40808;DHT22;26523;52.504;13.498;2022-11-15T08:00:04;4.60;99.90
40808;DHT22;26523;52.504;13.498;2022-11-15T08:02:31;4.80;99.90
40808;DHT22;26523;52.504;13.498;2022-11-15T08:04:57;4.80;99.90
40808;DHT22;26523;52.504;13.498;2022-11-15T08:07:22;5.00;99.90
40808;DHT22;26523;52.504;13.498;2022-11-15T08:09:48;5.10;99.90
40808;DHT22;26523;52.504;13.498;2022-11-15T08:12:14;5.10;99.90
40808;DHT22;26523;52.504;13.498;2022-11-15T08:14:40;5.20;99.90
40808;DHT22;26523;52.504;13.498;2022-11-15T08:17:05;5.30;99.90
40808;DHT22;26523;52.504;13.498;2022-11-15T08:19:31;5.30;99.90
40808;DHT22;26523;52.504;13.498;2022-11-15T08:21:57;5.40;99.90
40808;DHT22;26523;52.504;13.498;2022-11-15T08:24:23;5.50;99.90
40808;DHT22;26523;52.504;13.498;2022-11-15T08:26:49;5.60;99.90
40808;DHT22;26523;52.504;13.498;2022-11-15T08:29:14;5.70;99.90
40808;DHT22;26523;52.504;13.498;2022-11-15T08:31:40;5.90;99.90
40808;DHT22;26523;52.504;13.498;2022-11-15T08:34:06;5.90;99.90
40808;DHT22;26523;52.504;13.498;2022-11-15T08:36:32;6.00;99.90
40808;DHT22;26523;52.504;13.498;2022-11-15T08:38:57;6.10;99.90
40808;DHT22;26523;52.504;13.498;2022-11-15T08:41:37;6.10;99.90
40808;DHT22;26523;52.504;13.498;2022-11-15T08:44:03;6.10;99.90
40808;DHT22;26523;52.504;13.498;2022-11-15T08:46:28;6.20;99.90
40808;DHT22;26523;52.504;13.498;2022-11-15T08:48:54;6.20;99.90
40808;DHT22;26523;52.504;13.498;2022-11-15T08:51:20;6.30;99.90
40808;DHT22;26523;52.504;13.498;2022-11-15T08:53:45;6.40;99.90
40808;DHT22;26523;52.504;13.498;2022-11-15T08:56:13;6.60;99.90
40808;DHT22;26523;52.504;13.498;2022-11-15T08:58:39;6.50;99.90
40808;DHT22;26523;52.504;13.498;2022-11-15T09:01:06;6.60;99.90
40808;DHT22;26523;52.504;13.498;2022-11-15T09:03:32;6.60;99.90
40808;DHT22;26523;52.504;13.498;2022-11-15T09:05:59;6.70;99.90
40808;DHT22;26523;52.504;13.498;2022-11-15T09:08:28;6.70;99.90
40808;DHT22;26523;52.504;13.498;2022-11-15T09:10:54;6.80;99.90
40808;DHT22;26523;52.504;13.498;2022-11-15T09:13:20;6.80;99.90
40808;DHT22;26523;52.504;13.498;2022-11-15T09:15:46;6.90;99.90
40808;DHT22;26523;52.504;13.498;2022-11-15T09:18:11;6.90;99.90
40808;DHT22;26523;52.504;13.498;2022-11-15T09:20:37;7.00;99.90
40808;DHT22;26523;52.504;13.498;2022-11-15T09:23:04;7.00;99.90
40808;DHT22;26523;52.504;13.498;2022-11-15T09:25:30;7.10;99.90
40808;DHT22;26523;52.504;13.498;2022-11-15T09:27:56;7.20;99.90
40808;DHT22;26523;52.504;13.498;2022-11-15T09:30:23;7.30;99.90
40808;DHT22;26523;52.504;13.498;2022-11-15T09:32:49;7.40;99.90
40808;DHT22;26523;52.504;13.498;2022-11-15T09:35:15;7.50;99.90
40808;DHT22;26523;52.504;13.498;2022-11-15T09:37:41;7.70;99.90
40808;DHT22;26523;52.504;13.498;2022-11-15T09:40:14;7.70;99.90
40808;DHT22;26523;52.504;13.498;2022-11-15T09:49:06;8.00;99.90
40808;DHT22;26523;52.504;13.498;2022-11-15T09:51:44;8.00;99.90
40808;DHT22;26523;52.504;13.498;2022-11-15T09:54:30;8.10;99.90
40808;DHT22;26523;52.504;13.498;2022-11-15T09:57:23;8.20;99.90
40808;DHT22;26523;52.504;13.498;2022-11-15T10:02:26;8.40;99.90
40808;DHT22;26523;52.504;13.498;2022-11-15T10:04:57;8.50;99.90
40808;DHT22;26523;52.504;13.498;2022-11-15T10:07:50;8.60;99.90
40808;DHT22;26523;52.504;13.498;2022-11-15T10:12:48;8.70;99.90
40808;DHT22;26523;52.504;13.498;2022-11-15T10:15:18;8.80;99.90
40808;DHT22;26523;52.504;13.498;2022-11-15T10:20:49;9.00;99.90
40808;DHT22;26523;52.504;13.498;2022-11-15T10:23:18;9.00;99.90
40808;DHT22;26523;52.504;13.498;2022-11-15T10:25:45;9.10;99.90
40808;DHT22;26523;52.504;13.498;2022-11-15T10:28:25;9.20;99.90
40808;DHT22;26523;52.504;13.498;2022-11-15T10:30:53;9.30;99.90
40808;DHT22;26523;52.504;13.498;2022-11-15T10:38:52;9.40;99.90
40808;DHT22;26523;52.504;13.498;2022-11-15T10:44:19;9.60;99.90
40808;DHT22;26523;52.504;13.498;2022-11-15T10:46:47;9.70;99.90
40808;DHT22;26523;52.504;13.498;2022-11-15T10:49:21;9.80;99.90
40808;DHT22;26523;52.504;13.498;2022-11-15T10:51:52;9.80;99.90
40808;DHT22;26523;52.504;13.498;2022-11-15T10:54:37;9.80;99.90
40808;DHT22;26523;52.504;13.498;2022-11-15T10:57:14;9.90;99.90
40808;DHT22;26523;52.504;13.498;2022-11-15T10:59:49;9.90;99.90
40808;DHT22;26523;52.504;13.498;2022-11-15T11:02:34;10.00;99.90
40808;DHT22;26523;52.504;13.498;2022-11-15T11:05:02;10.10;99.90
40808;DHT22;26523;52.504;13.498;2022-11-15T11:07:30;10.10;99.90
40808;DHT22;26523;52.504;13.498;2022-11-15T11:10:18;10.20;99.90
40808;DHT22;26523;52.504;13.498;2022-11-15T11:12:44;10.20;99.90
40808;DHT22;26523;52.504;13.498;2022-11-15T11:15:12;10.30;99.90
40808;DHT22;26523;52.504;13.498;2022-11-15T11:20:28;10.40;99.90
40808;DHT22;26523;52.504;13.498;2022-11-15T11:26:14;10.50;99.90
40808;DHT22;26523;52.504;13.498;2022-11-15T11:29:02;10.60;99.90
40808;DHT22;26523;52.504;13.498;2022-11-15T11:43:22;10.80;99.90
40808;DHT22;26523;52.504;13.498;2022-11-15T11:48:57;10.80;99.90
40808;DHT22;26523;52.504;13.498;2022-11-15T11:51:43;10.80;99.90
40808;DHT22;26523;52.504;13.498;2022-11-15T11:54:20;10.90;99.90
40808;DHT22;26523;52.504;13.498;2022-11-15T11:56:47;10.80;99.90
40808;DHT22;26523;52.504;13.498;2022-11-15T11:59:58;10.80;99.90
40808;DHT22;26523;52.504;13.498;2022-11-15T12:02:34;10.90;99.90
40808;DHT22;26523;52.504;13.498;2022-11-15T12:07:35;10.90;99.90
40808;DHT22;26523;52.504;13.498;2022-11-15T12:10:28;11.00;99.90
40808;DHT22;26523;52.504;13.498;2022-11-15T12:15:41;11.00;99.90
40808;DHT22;26523;52.504;13.498;2022-11-15T12:18:13;11.00;99.90
40808;DHT22;26523;52.504;13.498;2022-11-15T12:21:04;11.10;99.90
40808;DHT22;26523;52.504;13.498;2022-11-15T12:23:31;11.30;99.90
40808;DHT22;26523;52.504;13.498;2022-11-15T12:26:09;11.30;99.90
40808;DHT22;26523;52.504;13.498;2022-11-15T12:28:58;11.40;99.90
40808;DHT22;26523;52.504;13.498;2022-11-15T12:34:50;11.30;99.90
40808;DHT22;26523;52.504;13.498;2022-11-15T12:36:51;11.30;99.90
40808;DHT22;26523;52.504;13.498;2022-11-15T12:39:18;11.30;99.90
40808;DHT22;26523;52.504;13.498;2022-11-15T12:47:21;11.40;99.90
40808;DHT22;26523;52.504;13.498;2022-11-15T12:49:48;11.30;99.90
40808;DHT22;26523;52.504;13.498;2022-11-15T12:52:14;11.20;99.90
40808;DHT22;26523;52.504;13.498;2022-11-15T12:59:51;11.10;99.90
40808;DHT22;26523;52.504;13.498;2022-11-15T13:02:45;11.20;99.90
40808;DHT22;26523;52.504;13.498;2022-11-15T13:17:53;11.30;99.90
40808;DHT22;26523;52.504;13.498;2022-11-15T13:20:31;11.30;99.90
40808;DHT22;26523;52.504;13.498;2022-11-15T13:23:12;11.40;99.90
40808;DHT22;26523;52.504;13.498;2022-11-15T13:28:45;11.40;99.90
40808;DHT22;26523;52.504;13.498;2022-11-15T13:34:01;11.50;99.90
40808;DHT22;26523;52.504;13.498;2022-11-15T13:36:32;11.50;99.90
40808;DHT22;26523;52.504;13.498;2022-11-15T13:39:02;11.60;99.90
40808;DHT22;26523;52.504;13.498;2022-11-15T13:41:31;11.60;99.90
40808;DHT22;26523;52.504;13.498;2022-11-15T13:43:58;11.60;99.90
40808;DHT22;26523;52.504;13.498;2022-11-15T13:46:29;11.50;99.90
40808;DHT22;26523;52.504;13.498;2022-11-15T13:49:00;11.50;99.90
40808;DHT22;26523;52.504;13.498;2022-11-15T13:54:40;11.50;99.90
40808;DHT22;26523;52.504;13.498;2022-11-15T13:57:11;11.40;99.90
40808;DHT22;26523;52.504;13.498;2022-11-15T14:00:05;11.40;99.90
40808;DHT22;26523;52.504;13.498;2022-11-15T14:02:34;11.40;99.90
40808;DHT22;26523;52.504;13.498;2022-11-15T14:05:17;11.40;99.90
40808;DHT22;26523;52.504;13.498;2022-11-15T14:08:12;11.40;99.90
40808;DHT22;26523;52.504;13.498;2022-11-15T14:10:46;11.30;99.90
40808;DHT22;26523;52.504;13.498;2022-11-15T14:13:29;11.20;99.90
40808;DHT22;26523;52.504;13.498;2022-11-15T14:16:19;11.20;99.90
40808;DHT22;26523;52.504;13.498;2022-11-15T14:18:47;11.10;99.90
40808;DHT22;26523;52.504;13.498;2022-11-15T14:21:15;11.10;99.90
40808;DHT22;26523;52.504;13.498;2022-11-15T14:23:41;11.10;99.90
40808;DHT22;26523;52.504;13.498;2022-11-15T14:26:31;11.00;99.90
40808;DHT22;26523;52.504;13.498;2022-11-15T14:28:57;11.00;99.90
40808;DHT22;26523;52.504;13.498;2022-11-15T14:31:23;10.90;99.90
40808;DHT22;26523;52.504;13.498;2022-11-15T14:34:10;10.80;99.90
40808;DHT22;26523;52.504;13.498;2022-11-15T14:36:35;10.90;99.90
40808;DHT22;26523;52.504;13.498;2022-11-15T14:39:01;10.80;99.90
40808;DHT22;26523;52.504;13.498;2022-11-15T14:41:35;10.80;99.90
40808;DHT22;26523;52.504;13.498;2022-11-15T14:44:03;10.80;99.90
40808;DHT22;26523;52.504;13.498;2022-11-15T14:46:30;10.70;99.90
40808;DHT22;26523;52.504;13.498;2022-11-15T14:48:55;10.60;99.90
40808;DHT22;26523;52.504;13.498;2022-11-15T14:51:22;10.60;99.90
40808;DHT22;26523;52.504;13.498;2022-11-15T14:53:48;10.50;99.90
40808;DHT22;26523;52.504;13.498;2022-11-15T14:56:14;10.50;99.90
40808;DHT22;26523;52.504;13.498;2022-11-15T14:58:42;10.40;99.90
40808;DHT22;26523;52.504;13.498;2022-11-15T15:01:20;10.30;99.90
40808;DHT22;26523;52.504;13.498;2022-11-15T15:03:46;10.20;99.90
40808;DHT22;26523;52.504;13.498;2022-11-15T15:06:12;10.20;99.90
40808;DHT22;26523;52.504;13.498;2022-11-15T15:08:40;10.10;99.90
40808;DHT22;26523;52.504;13.498;2022-11-15T15:11:16;10.10;99.90
40808;DHT22;26523;52.504;13.498;2022-11-15T15:13:44;10.00;99.90
40808;DHT22;26523;52.504;13.498;2022-11-15T15:16:09;10.00;99.90
40808;DHT22;26523;52.504;13.498;2022-11-15T15:18:35;10.00;99.90
40808;DHT22;26523;52.504;13.498;2022-11-15T15:21:01;10.00;99.90
40808;DHT22;26523;52.504;13.498;2022-11-15T15:23:32;10.00;99.90
40808;DHT22;26523;52.504;13.498;2022-11-15T15:25:59;10.00;99.90
40808;DHT22;26523;52.504;13.498;2022-11-15T15:28:24;9.90;99.90
40808;DHT22;26523;52.504;13.498;2022-11-15T15:30:50;9.80;99.90
40808;DHT22;26523;52.504;13.498;2022-11-15T15:33:18;9.80;99.90
40808;DHT22;26523;52.504;13.498;2022-11-15T15:35:43;9.70;99.90
40808;DHT22;26523;52.504;13.498;2022-11-15T15:38:13;9.60;99.90
40808;DHT22;26523;52.504;13.498;2022-11-15T15:40:40;9.50;99.90
40808;DHT22;26523;52.504;13.498;2022-11-15T15:43:06;9.50;99.90
40808;DHT22;26523;52.504;13.498;2022-11-15T15:45:38;9.50;99.90
40808;DHT22;26523;52.504;13.498;2022-11-15T15:48:04;9.40;99.90
40808;DHT22;26523;52.504;13.498;2022-11-15T15:50:34;9.30;99.90
40808;DHT22;26523;52.504;13.498;2022-11-15T15:53:02;9.30;99.90
40808;DHT22;26523;52.504;13.498;2022-11-15T15:55:28;9.20;99.90
40808;DHT22;26523;52.504;13.498;2022-11-15T15:57:54;9.20;99.90
40808;DHT22;26523;52.504;13.498;2022-11-15T16:00:22;9.10;99.90
40808;DHT22;26523;52.504;13.498;2022-11-15T16:02:49;9.10;99.90
40808;DHT22;26523;52.504;13.498;2022-11-15T16:05:15;9.10;99.90
40808;DHT22;26523;52.504;13.498;2022-11-15T16:07:41;9.10;99.90
40808;DHT22;26523;52.504;13.498;2022-11-15T16:12:42;9.00;99.90
40808;DHT22;26523;52.504;13.498;2022-11-15T16:15:08;8.90;99.90
40808;DHT22;26523;52.504;13.498;2022-11-15T16:17:39;8.90;99.90
40808;DHT22;26523;52.504;13.498;2022-11-15T16:20:06;8.90;99.90
40808;DHT22;26523;52.504;13.498;2022-11-15T16:22:36;8.90;99.90
40808;DHT22;26523;52.504;13.498;2022-11-15T16:25:02;8.90;99.90
40808;DHT22;26523;52.504;13.498;2022-11-15T16:27:27;8.90;99.90
40808;DHT22;26523;52.504;13.498;2022-11-15T16:29:53;8.80;99.90
40808;DHT22;26523;52.504;13.498;2022-11-15T16:32:19;8.80;99.90
40808;DHT22;26523;52.504;13.498;2022-11-15T16:34:44;8.70;99.90
40808;DHT22;26523;52.504;13.498;2022-11-15T16:37:22;8.70;99.90
40808;DHT22;26523;52.504;13.498;2022-11-15T16:39:48;8.70;99.90
40808;DHT22;26523;52.504;13.498;2022-11-15T16:42:15;8.60;99.90
40808;DHT22;26523;52.504;13.498;2022-11-15T16:44:40;8.50;99.90
40808;DHT22;26523;52.504;13.498;2022-11-15T16:47:18;8.40;99.90
40808;DHT22;26523;52.504;13.498;2022-11-15T16:49:44;8.40;99.90
40808;DHT22;26523;52.504;13.498;2022-11-15T16:52:10;8.30;99.90
40808;DHT22;26523;52.504;13.498;2022-11-15T16:54:36;8.30;99.90
40808;DHT22;26523;52.504;13.498;2022-11-15T16:57:02;8.20;99.90
40808;DHT22;26523;52.504;13.498;2022-11-15T16:59:27;8.20;99.90
40808;DHT22;26523;52.504;13.498;2022-11-15T17:01:55;8.20;99.90
40808;DHT22;26523;52.504;13.498;2022-11-15T17:04:20;8.10;99.90
40808;DHT22;26523;52.504;13.498;2022-11-15T17:06:47;8.00;99.90
40808;DHT22;26523;52.504;13.498;2022-11-15T17:09:19;7.90;99.90
40808;DHT22;26523;52.504;13.498;2022-11-15T17:11:45;7.80;99.90
40808;DHT22;26523;52.504;13.498;2022-11-15T17:14:12;7.80;99.90
40808;DHT22;26523;52.504;13.498;2022-11-15T17:16:38;7.80;99.90
40808;DHT22;26523;52.504;13.498;2022-11-15T17:19:11;7.70;99.90
40808;DHT22;26523;52.504;13.498;2022-11-15T17:21:38;7.60;99.90
40808;DHT22;26523;52.504;13.498;2022-11-15T17:24:04;7.60;99.90
40808;DHT22;26523;52.504;13.498;2022-11-15T17:26:30;7.50;99.90
40808;DHT22;26523;52.504;13.498;2022-11-15T17:28:55;7.50;99.90
40808;DHT22;26523;52.504;13.498;2022-11-15T17:31:21;7.50;99.90
40808;DHT22;26523;52.504;13.498;2022-11-15T17:33:47;7.40;99.90
40808;DHT22;26523;52.504;13.498;2022-11-15T17:36:13;7.30;99.90
40808;DHT22;26523;52.504;13.498;2022-11-15T17:38:42;7.30;99.90
40808;DHT22;26523;52.504;13.498;2022-11-15T17:41:14;7.20;99.90
40808;DHT22;26523;52.504;13.498;2022-11-15T17:43:40;7.20;99.90
40808;DHT22;26523;52.504;13.498;2022-11-15T17:46:10;7.20;99.90
40808;DHT22;26523;52.504;13.498;2022-11-15T17:48:37;7.20;99.90
40808;DHT22;26523;52.504;13.498;2022-11-15T17:51:05;7.20;99.90